createdAt,value
2018-06-21T00:00:11.594Z,55.70
2018-06-21T00:02:39.113Z,55.60
2018-06-21T00:05:06.700Z,56.10
2018-06-21T00:07:34.447Z,56.40
2018-06-21T00:10:02.539Z,57.30
2018-06-21T00:12:30.186Z,56.60
2018-06-21T00:14:58.195Z,56.80
2018-06-21T00:17:26.067Z,57.40
2018-06-21T00:19:53.967Z,57.80
2018-06-21T00:22:25.232Z,57.50
2018-06-21T00:24:53.390Z,57.70
2018-06-21T00:27:21.271Z,58.20
2018-06-21T00:29:49.662Z,58.00
2018-06-21T00:32:17.549Z,57.80
2018-06-21T00:34:45.574Z,58.00
2018-06-21T00:37:13.184Z,57.90
2018-06-21T00:39:41.021Z,58.00
2018-06-21T00:42:08.648Z,58.30
2018-06-21T00:44:36.313Z,58.70
2018-06-21T00:47:04.221Z,58.80
2018-06-21T00:49:31.983Z,58.90
2018-06-21T00:51:59.872Z,59.00
2018-06-21T00:54:27.400Z,60.00
2018-06-21T00:56:55.070Z,60.00
2018-06-21T00:59:22.834Z,59.90
2018-06-21T01:01:50.562Z,59.80
2018-06-21T01:04:18.981Z,59.70
2018-06-21T01:06:46.662Z,60.60
2018-06-21T01:09:16.291Z,60.30
2018-06-21T01:11:44.061Z,60.60
2018-06-21T01:14:11.675Z,60.50
2018-06-21T01:16:39.391Z,60.10
2018-06-21T01:19:06.999Z,60.50
2018-06-21T01:21:34.906Z,60.60
2018-06-21T01:24:02.835Z,60.10
2018-06-21T01:26:30.812Z,59.80
2018-06-21T01:28:58.435Z,60.00
2018-06-21T01:31:26.251Z,60.40
2018-06-21T01:33:55.725Z,60.40
2018-06-21T01:36:24.336Z,60.30
2018-06-21T01:38:52.059Z,60.30
2018-06-21T01:41:19.706Z,60.70
2018-06-21T01:43:47.518Z,60.50
2018-06-21T01:46:15.815Z,60.90
2018-06-21T01:48:43.482Z,61.50
2018-06-21T01:51:11.075Z,61.30
2018-06-21T01:53:39.047Z,61.70
2018-06-21T01:56:07.107Z,62.00
2018-06-21T01:58:34.890Z,61.90
2018-06-21T02:01:02.954Z,61.60
2018-06-21T02:03:48.335Z,61.50
2018-06-21T02:06:16.094Z,60.70
2018-06-21T02:08:43.882Z,60.80
2018-06-21T02:11:11.740Z,61.00
2018-06-21T02:13:39.480Z,61.20
2018-06-21T02:16:07.088Z,61.10
2018-06-21T02:18:34.596Z,61.70
2018-06-21T02:21:02.228Z,62.00
2018-06-21T02:23:29.859Z,62.00
2018-06-21T02:25:57.694Z,61.70
2018-06-21T02:28:25.205Z,62.40
2018-06-21T02:30:53.528Z,62.60
2018-06-21T02:33:22.528Z,62.70
2018-06-21T02:35:50.146Z,62.80
2018-06-21T02:38:17.750Z,62.50
2018-06-21T02:40:45.488Z,62.10
2018-06-21T02:43:13.228Z,61.70
2018-06-21T02:45:40.821Z,61.60
2018-06-21T02:48:08.403Z,61.50
2018-06-21T02:50:36.292Z,62.00
2018-06-21T02:53:03.991Z,62.10
2018-06-21T02:55:31.655Z,62.40
2018-06-21T02:58:00.179Z,62.60
2018-06-21T03:00:28.254Z,62.50
2018-06-21T03:02:56.177Z,62.40
2018-06-21T03:05:23.803Z,62.50
2018-06-21T03:07:51.646Z,62.10
2018-06-21T03:10:19.227Z,62.00
2018-06-21T03:12:47.215Z,61.90
2018-06-21T03:15:14.816Z,62.40
2018-06-21T03:17:42.376Z,62.50
2018-06-21T03:20:09.867Z,62.70
2018-06-21T03:22:38.904Z,63.50
2018-06-21T03:25:06.470Z,63.80
2018-06-21T03:27:34.261Z,63.50
2018-06-21T03:30:01.853Z,63.10
2018-06-21T03:32:29.435Z,63.10
2018-06-21T03:34:56.948Z,62.70
2018-06-21T03:37:24.564Z,62.80
2018-06-21T03:39:52.079Z,62.80
2018-06-21T03:42:20.756Z,62.50
2018-06-21T03:44:48.506Z,62.50
2018-06-21T03:47:16.255Z,62.30
2018-06-21T03:49:44.239Z,62.10
2018-06-21T03:52:12.016Z,62.20
2018-06-21T03:54:39.709Z,62.00
2018-06-21T03:57:07.343Z,61.80
2018-06-21T03:59:34.987Z,61.80
2018-06-21T04:02:02.910Z,61.50
2018-06-21T04:04:30.579Z,61.60
2018-06-21T04:06:58.135Z,61.40
2018-06-21T04:09:25.733Z,61.30
2018-06-21T04:11:53.396Z,61.30
2018-06-21T04:14:21.021Z,61.00
2018-06-21T04:16:48.662Z,60.20
2018-06-21T04:19:16.344Z,60.40
2018-06-21T04:21:44.967Z,60.50
2018-06-21T04:24:12.655Z,58.90
2018-06-21T04:26:40.320Z,57.80
2018-06-21T04:29:07.907Z,57.20
2018-06-21T04:31:35.635Z,57.10
2018-06-21T04:34:03.539Z,56.80
2018-06-21T04:36:31.349Z,56.60
2018-06-21T04:38:59.352Z,56.10
2018-06-21T04:41:27.183Z,55.90
2018-06-21T04:43:55.315Z,56.00
2018-06-21T04:46:23.127Z,55.70
2018-06-21T04:48:50.656Z,55.40
2018-06-21T04:51:18.249Z,55.30
2018-06-21T04:53:45.470Z,55.10
2018-06-21T04:56:13.184Z,54.90
2018-06-21T04:58:40.822Z,54.80
2018-06-21T05:01:08.427Z,54.90
2018-06-21T05:03:36.080Z,54.90
2018-06-21T05:06:04.154Z,54.70
2018-06-21T05:08:31.761Z,54.70
2018-06-21T05:10:59.791Z,54.10
2018-06-21T05:13:27.326Z,54.00
2018-06-21T05:15:54.960Z,53.80
2018-06-21T05:18:27.117Z,53.70
2018-06-21T05:20:54.663Z,53.50
2018-06-21T05:23:22.299Z,53.30
2018-06-21T05:25:51.660Z,53.00
2018-06-21T05:28:19.624Z,52.20
2018-06-21T05:30:47.340Z,52.20
2018-06-21T05:33:16.088Z,52.40
2018-06-21T05:35:43.949Z,52.40
2018-06-21T05:38:11.643Z,52.10
2018-06-21T05:40:39.401Z,51.70
2018-06-21T05:43:07.851Z,51.10
2018-06-21T05:45:35.485Z,51.00
2018-06-21T05:48:04.114Z,50.70
2018-06-21T05:50:32.840Z,50.90
2018-06-21T05:53:00.687Z,50.80
2018-06-21T05:55:29.324Z,50.70
2018-06-21T05:57:56.945Z,50.40
2018-06-21T06:00:24.581Z,50.20
2018-06-21T06:02:53.175Z,50.10
2018-06-21T06:05:21.026Z,50.00
2018-06-21T06:07:49.014Z,49.60
2018-06-21T06:10:16.598Z,49.80
2018-06-21T06:12:45.564Z,49.50
2018-06-21T06:15:13.252Z,48.90
2018-06-21T06:17:40.841Z,49.20
2018-06-21T06:20:09.240Z,49.10
2018-06-21T06:22:36.855Z,49.00
2018-06-21T06:25:04.821Z,48.60
2018-06-21T06:27:32.675Z,48.30
2018-06-21T06:30:00.346Z,47.20
2018-06-21T06:32:27.919Z,45.70
2018-06-21T06:34:55.677Z,44.40
2018-06-21T06:37:23.526Z,44.10
2018-06-21T06:39:51.240Z,44.40
2018-06-21T06:42:19.153Z,43.70
2018-06-21T06:44:47.009Z,43.30
2018-06-21T06:47:14.885Z,42.80
2018-06-21T06:49:42.502Z,42.10
2018-06-21T06:52:11.463Z,41.50
2018-06-21T06:54:41.303Z,41.00
2018-06-21T06:57:09.799Z,41.20
2018-06-21T06:59:37.590Z,41.10
2018-06-21T07:02:05.176Z,41.30
2018-06-21T07:04:32.770Z,39.80
2018-06-21T07:07:00.583Z,38.70
2018-06-21T07:09:28.082Z,38.30
2018-06-21T07:11:55.731Z,36.60
2018-06-21T07:14:23.455Z,36.20
2018-06-21T07:16:50.963Z,36.50
2018-06-21T07:19:18.582Z,37.70
2018-06-21T07:21:46.258Z,36.10
2018-06-21T07:24:13.916Z,33.40
2018-06-21T07:26:41.428Z,33.70
2018-06-21T07:29:09.270Z,32.20
2018-06-21T07:31:36.886Z,33.20
2018-06-21T07:34:04.668Z,32.70
2018-06-21T07:36:32.397Z,32.00
2018-06-21T07:39:00.238Z,30.90
2018-06-21T07:41:27.859Z,31.10
2018-06-21T07:43:55.370Z,31.50
2018-06-21T07:46:23.025Z,32.20
2018-06-21T07:48:50.644Z,33.10
2018-06-21T07:51:18.205Z,32.00
2018-06-21T07:53:45.811Z,31.90
2018-06-21T07:56:13.430Z,31.70
2018-06-21T07:58:41.129Z,30.90
2018-06-21T08:01:08.707Z,30.50
2018-06-21T08:03:36.424Z,30.30
2018-06-21T08:06:03.978Z,29.90
2018-06-21T08:08:31.573Z,31.00
2018-06-21T08:10:59.155Z,31.10
2018-06-21T08:13:26.671Z,31.30
2018-06-21T08:15:54.169Z,30.70
2018-06-21T08:18:21.714Z,31.10
2018-06-21T08:20:49.322Z,32.10
2018-06-21T08:23:17.031Z,32.60
2018-06-21T08:25:44.811Z,32.80
2018-06-21T08:28:12.510Z,31.70
2018-06-21T08:30:40.143Z,31.80
2018-06-21T08:33:07.726Z,32.10
2018-06-21T08:35:35.367Z,31.50
2018-06-21T08:38:02.904Z,32.20
2018-06-21T08:40:30.480Z,32.10
2018-06-21T08:42:58.007Z,32.10
2018-06-21T08:45:25.490Z,32.10
2018-06-21T08:47:53.004Z,31.80
2018-06-21T08:50:21.001Z,32.30
2018-06-21T08:52:49.282Z,31.10
2018-06-21T08:55:16.819Z,31.60
2018-06-21T08:57:44.364Z,31.40
2018-06-21T09:00:12.124Z,31.10
2018-06-21T09:02:39.711Z,31.60
2018-06-21T09:05:07.257Z,30.60
2018-06-21T09:07:34.811Z,31.20
2018-06-21T09:10:02.302Z,31.00
2018-06-21T09:12:32.806Z,29.70
2018-06-21T09:15:00.751Z,29.40
2018-06-21T09:17:28.271Z,28.90
2018-06-21T09:19:55.773Z,29.20
2018-06-21T09:22:23.273Z,29.60
2018-06-21T09:24:50.781Z,29.80
2018-06-21T09:27:18.367Z,30.20
2018-06-21T09:29:45.952Z,30.30
2018-06-21T09:32:13.600Z,30.50
2018-06-21T09:34:41.291Z,30.40
2018-06-21T09:37:08.812Z,30.10
2018-06-21T09:39:41.952Z,30.10
2018-06-21T09:42:15.220Z,30.50
2018-06-21T09:44:48.318Z,30.50
2018-06-21T09:47:22.047Z,30.40
2018-06-21T09:49:49.739Z,30.60
2018-06-21T09:52:17.402Z,30.70
2018-06-21T09:54:45.077Z,30.00
2018-06-21T09:57:12.820Z,30.10
2018-06-21T09:59:40.854Z,30.00
2018-06-21T10:02:08.915Z,30.80
2018-06-21T10:04:37.571Z,33.90
2018-06-21T10:07:05.212Z,34.90
2018-06-21T10:09:32.838Z,35.40
2018-06-21T10:12:00.335Z,36.20
2018-06-21T10:14:28.042Z,36.60
2018-06-21T10:16:55.634Z,37.00
2018-06-21T10:19:23.241Z,37.00
2018-06-21T10:21:50.998Z,37.40
2018-06-21T10:24:18.670Z,37.40
2018-06-21T10:26:46.385Z,36.80
2018-06-21T10:29:14.186Z,36.40
2018-06-21T10:31:41.803Z,36.10
2018-06-21T10:34:09.347Z,36.60
2018-06-21T10:36:36.888Z,37.00
2018-06-21T10:39:07.487Z,36.60
2018-06-21T10:41:34.987Z,36.70
2018-06-21T10:44:02.961Z,36.00
2018-06-21T10:46:30.719Z,35.90
2018-06-21T10:48:58.221Z,36.50
2018-06-21T10:51:25.760Z,36.50
2018-06-21T10:53:53.278Z,36.70
2018-06-21T10:56:24.847Z,36.70
2018-06-21T10:58:52.904Z,36.40
2018-06-21T11:01:20.492Z,36.20
2018-06-21T11:03:48.051Z,35.90
2018-06-21T11:06:15.675Z,36.70
2018-06-21T11:08:43.271Z,37.30
2018-06-21T11:11:10.948Z,37.70
2018-06-21T11:13:38.475Z,38.40
2018-06-21T11:16:06.117Z,39.00
2018-06-21T11:18:33.662Z,38.50
2018-06-21T11:21:01.291Z,38.40
2018-06-21T11:23:28.865Z,38.80
2018-06-21T11:25:56.816Z,39.20
2018-06-21T11:28:24.355Z,39.40
2018-06-21T11:30:51.914Z,39.30
2018-06-21T11:33:19.496Z,39.40
2018-06-21T11:35:47.247Z,38.70
2018-06-21T11:38:15.083Z,38.60
2018-06-21T11:40:42.746Z,37.80
2018-06-21T11:43:10.408Z,37.00
2018-06-21T11:45:38.095Z,36.60
2018-06-21T11:48:05.919Z,35.80
2018-06-21T11:50:33.467Z,35.60
2018-06-21T11:53:01.143Z,34.10
2018-06-21T11:55:29.633Z,35.10
2018-06-21T11:57:58.616Z,34.10
2018-06-21T12:00:26.247Z,34.40
2018-06-21T12:02:53.778Z,33.70
2018-06-21T12:05:21.327Z,33.70
2018-06-21T12:07:49.493Z,33.70
2018-06-21T12:10:17.158Z,33.20
2018-06-21T12:12:50.334Z,33.50
2018-06-21T12:15:18.042Z,32.30
2018-06-21T12:17:45.838Z,32.00
2018-06-21T12:20:13.435Z,30.50
2018-06-21T12:22:41.084Z,29.20
2018-06-21T12:25:08.657Z,28.20
2018-06-21T12:27:36.436Z,26.30
2018-06-21T12:30:04.089Z,26.00
2018-06-21T12:32:31.795Z,26.30
2018-06-21T12:34:59.395Z,25.40
2018-06-21T12:37:27.295Z,24.40
2018-06-21T12:39:54.807Z,23.30
2018-06-21T12:42:22.521Z,23.60
2018-06-21T12:44:50.053Z,23.80
2018-06-21T12:47:17.553Z,22.30
2018-06-21T12:49:45.075Z,22.30
2018-06-21T12:52:12.598Z,21.90
2018-06-21T12:54:40.196Z,21.40
2018-06-21T12:59:40.945Z,19.70
2018-06-21T13:02:08.546Z,19.20
2018-06-21T13:04:37.152Z,19.70
2018-06-21T13:07:04.715Z,20.40
2018-06-21T13:09:43.530Z,19.40
2018-06-21T13:12:23.497Z,18.00
2018-06-21T13:14:51.420Z,18.00
2018-06-21T13:17:18.982Z,18.20
2018-06-21T13:19:46.922Z,18.90
2018-06-21T13:22:14.515Z,18.70
2018-06-21T13:24:42.187Z,19.00
2018-06-21T13:27:10.271Z,19.40
2018-06-21T13:29:38.927Z,19.10
2018-06-21T13:32:06.930Z,19.00
2018-06-21T13:34:34.626Z,17.90
2018-06-21T13:37:02.403Z,15.70
2018-06-21T13:39:30.070Z,15.30
2018-06-21T13:41:57.722Z,15.70
2018-06-21T13:44:25.302Z,16.10
2018-06-21T13:46:52.849Z,16.10
2018-06-21T13:49:20.400Z,17.20
2018-06-21T13:51:48.175Z,17.90
2018-06-21T13:54:15.715Z,17.80
2018-06-21T13:56:44.617Z,18.30
2018-06-21T13:59:12.684Z,18.40
2018-06-21T14:01:40.272Z,18.70
2018-06-21T14:04:07.911Z,18.80
2018-06-21T14:06:35.530Z,18.10
2018-06-21T14:09:04.971Z,18.30
2018-06-21T14:11:33.675Z,17.20
2018-06-21T14:14:01.299Z,17.20
2018-06-21T14:16:29.111Z,17.10
2018-06-21T14:18:57.716Z,17.50
2018-06-21T14:21:25.363Z,17.00
2018-06-21T14:23:53.125Z,16.00
2018-06-21T14:26:20.743Z,15.50
2018-06-21T14:28:48.431Z,14.80
2018-06-21T14:31:16.353Z,14.70
2018-06-21T14:33:44.154Z,14.40
2018-06-21T14:36:12.431Z,14.50
2018-06-21T14:38:39.963Z,14.80
2018-06-21T14:41:08.547Z,13.40
2018-06-21T14:43:36.213Z,13.90
2018-06-21T14:46:03.806Z,13.90
2018-06-21T14:48:31.357Z,14.00
2018-06-21T14:50:59.068Z,14.40
2018-06-21T14:53:27.714Z,14.40
2018-06-21T14:55:55.278Z,14.90
2018-06-21T14:58:23.142Z,15.70
2018-06-21T15:00:51.342Z,15.70
2018-06-21T15:03:18.978Z,13.40
2018-06-21T15:05:46.620Z,12.70
2018-06-21T15:08:14.639Z,14.40
2018-06-21T15:10:42.265Z,14.90
2018-06-21T15:13:09.834Z,16.00
2018-06-21T15:15:37.391Z,15.10
2018-06-21T15:18:05.415Z,16.00
2018-06-21T15:20:33.211Z,15.00
2018-06-21T15:23:00.844Z,15.20
2018-06-21T15:25:28.508Z,14.20
2018-06-21T15:27:58.027Z,14.30
2018-06-21T15:30:25.951Z,14.60
2018-06-21T15:32:55.288Z,15.00
2018-06-21T15:35:28.620Z,15.00
2018-06-21T15:37:56.181Z,14.80
2018-06-21T15:40:23.850Z,15.20
2018-06-21T15:42:51.402Z,15.60
2018-06-21T15:45:20.138Z,15.50
2018-06-21T15:47:48.723Z,15.60
2018-06-21T15:50:16.255Z,15.60
2018-06-21T15:52:44.426Z,15.50
2018-06-21T15:55:12.103Z,15.20
2018-06-21T15:57:40.799Z,14.70
2018-06-21T16:00:09.683Z,14.70
2018-06-21T16:02:37.147Z,14.90
2018-06-21T16:05:04.756Z,15.40
2018-06-21T16:07:33.621Z,15.50
2018-06-21T16:10:02.142Z,15.50
2018-06-21T16:12:29.700Z,15.50
2018-06-21T16:14:57.237Z,15.00
2018-06-21T16:17:24.812Z,14.30
2018-06-21T16:19:55.073Z,13.90
2018-06-21T16:22:22.707Z,13.90
2018-06-21T16:24:50.303Z,14.10
2018-06-21T16:27:17.899Z,14.00
2018-06-21T16:29:45.481Z,14.50
2018-06-21T16:32:13.060Z,15.20
2018-06-21T16:34:40.603Z,15.20
2018-06-21T16:37:08.242Z,15.10
2018-06-21T16:39:38.424Z,15.10
2018-06-21T16:42:06.638Z,15.10
2018-06-21T16:44:34.281Z,15.30
2018-06-21T16:47:09.581Z,14.90
2018-06-21T16:49:37.157Z,14.40
2018-06-21T16:52:04.842Z,14.50
2018-06-21T16:54:32.687Z,15.20
2018-06-21T16:57:00.249Z,14.80
2018-06-21T16:59:27.886Z,15.10
2018-06-21T17:01:55.534Z,15.00
2018-06-21T17:04:23.086Z,15.00
2018-06-21T17:06:50.635Z,14.90
2018-06-21T17:09:18.235Z,14.90
2018-06-21T17:11:45.805Z,15.00
2018-06-21T17:14:13.867Z,15.70
2018-06-21T17:16:41.414Z,15.40
2018-06-21T17:19:09.348Z,15.40
2018-06-21T17:21:37.459Z,15.60
2018-06-21T17:24:05.571Z,15.80
2018-06-21T17:26:37.519Z,15.30
2018-06-21T17:29:05.710Z,14.90
2018-06-21T17:31:33.414Z,16.70
2018-06-21T17:34:02.009Z,16.20
2018-06-21T17:36:29.749Z,16.30
2018-06-21T17:38:58.172Z,15.80
2018-06-21T17:41:25.779Z,16.10
2018-06-21T17:43:53.469Z,14.90
2018-06-21T17:46:21.189Z,15.70
2018-06-21T17:49:08.958Z,15.20
2018-06-21T17:51:40.504Z,15.20
2018-06-21T17:54:08.213Z,15.70
2018-06-21T17:56:35.755Z,15.60
2018-06-21T17:59:03.543Z,16.60
2018-06-21T18:01:32.194Z,16.30
2018-06-21T18:03:59.779Z,16.70
2018-06-21T18:06:27.367Z,16.30
2018-06-21T18:08:56.090Z,16.70
2018-06-21T18:11:25.094Z,16.60
2018-06-21T18:13:52.747Z,16.70
2018-06-21T18:16:20.390Z,16.70
2018-06-21T18:18:49.048Z,17.30
2018-06-21T18:21:16.751Z,17.10
2018-06-21T18:23:44.479Z,17.00
2018-06-21T18:26:12.007Z,17.40
2018-06-21T18:28:39.615Z,17.40
2018-06-21T18:31:07.411Z,17.30
2018-06-21T18:33:34.968Z,17.70
2018-06-21T18:36:02.608Z,17.60
2018-06-21T18:38:30.158Z,17.70
2018-06-21T18:40:58.856Z,17.80
2018-06-21T18:43:26.456Z,18.10
2018-06-21T18:45:54.090Z,18.80
2018-06-21T18:48:21.715Z,18.90
2018-06-21T18:50:49.256Z,18.30
2018-06-21T18:53:17.134Z,18.50
2018-06-21T18:55:45.364Z,18.30
2018-06-21T18:58:12.922Z,18.70
2018-06-21T19:00:40.556Z,18.70
2018-06-21T19:03:08.291Z,19.00
2018-06-21T19:05:35.991Z,18.80
2018-06-21T19:08:09.165Z,19.00
2018-06-21T19:10:42.392Z,19.30
2018-06-21T19:13:10.108Z,19.20
2018-06-21T19:16:04.208Z,19.70
2018-06-21T19:18:32.061Z,19.60
2018-06-21T19:20:59.696Z,20.50
2018-06-21T19:23:27.577Z,20.40
2018-06-21T19:25:56.171Z,20.70
2018-06-21T19:28:29.793Z,20.60
2018-06-21T19:31:00.791Z,21.10
2018-06-21T19:33:30.230Z,21.00
2018-06-21T19:36:02.283Z,21.00
2018-06-21T19:38:30.055Z,20.90
2018-06-21T19:40:57.848Z,21.30
2018-06-21T19:43:25.620Z,21.80
2018-06-21T19:45:53.248Z,21.90
2018-06-21T19:48:20.821Z,22.00
2018-06-21T19:50:48.615Z,22.30
2018-06-21T19:53:16.307Z,22.40
2018-06-21T19:55:44.096Z,22.50
2018-06-21T19:58:12.407Z,22.10
2018-06-21T20:00:39.962Z,22.30
2018-06-21T20:03:07.613Z,22.80
2018-06-21T20:05:35.255Z,22.70
2018-06-21T20:08:03.002Z,22.60
2018-06-21T20:10:30.768Z,22.60
2018-06-21T20:12:58.358Z,22.60
2018-06-21T20:15:26.020Z,23.00
2018-06-21T20:17:53.615Z,23.10
2018-06-21T20:20:26.898Z,23.20
2018-06-21T20:22:54.465Z,23.50
2018-06-21T20:25:22.058Z,23.70
2018-06-21T20:27:49.649Z,24.00
2018-06-21T20:30:17.262Z,23.90
2018-06-21T20:32:44.973Z,24.20
2018-06-21T20:35:12.534Z,24.30
2018-06-21T20:37:40.223Z,24.20
2018-06-21T20:40:07.843Z,24.30
2018-06-21T20:42:36.952Z,24.50
2018-06-21T20:45:04.731Z,24.50
2018-06-21T20:47:32.482Z,24.80
2018-06-21T20:50:00.649Z,25.00
2018-06-21T20:52:29.543Z,24.90
2018-06-21T20:54:58.365Z,25.10
2018-06-21T20:57:26.898Z,25.20
2018-06-21T20:59:55.586Z,25.40
2018-06-21T21:02:24.398Z,25.40
2018-06-21T21:05:09.127Z,25.60
2018-06-21T21:07:36.939Z,26.00
2018-06-21T21:10:06.340Z,25.80
2018-06-21T21:12:33.976Z,26.00
2018-06-21T21:15:02.002Z,26.30
2018-06-21T21:17:30.850Z,26.30
2018-06-21T21:20:02.571Z,26.50
2018-06-21T21:22:30.436Z,26.60
2018-06-21T21:24:58.271Z,26.70
2018-06-21T21:27:26.140Z,26.80
2018-06-21T21:29:55.200Z,27.00
2018-06-21T21:32:23.485Z,27.10
2018-06-21T21:34:51.230Z,27.20
2018-06-21T21:37:19.032Z,27.70
2018-06-21T21:39:46.639Z,27.80
2018-06-21T21:42:14.155Z,27.90
2018-06-21T21:44:42.971Z,27.80
2018-06-21T21:47:10.660Z,27.80
2018-06-21T21:49:40.283Z,27.80
2018-06-21T21:52:07.855Z,27.70
2018-06-21T21:54:35.868Z,28.20
2018-06-21T21:57:03.442Z,28.20
2018-06-21T21:59:33.009Z,28.40
2018-06-21T22:02:01.027Z,28.60
2018-06-21T22:04:29.390Z,28.70
2018-06-21T22:06:57.985Z,28.90
2018-06-21T22:09:25.878Z,29.30
2018-06-21T22:11:53.443Z,29.60
2018-06-21T22:14:22.072Z,29.80
2018-06-21T22:16:49.807Z,30.00
2018-06-21T22:19:17.454Z,30.10
2018-06-21T22:21:44.984Z,30.30
2018-06-21T22:24:12.716Z,30.50
2018-06-21T22:26:41.370Z,30.50
2018-06-21T22:29:09.004Z,30.70
2018-06-21T22:31:36.674Z,30.70
2018-06-21T22:34:06.659Z,30.80
2018-06-21T22:36:34.356Z,31.00
2018-06-21T22:39:02.601Z,31.10
2018-06-21T22:41:30.479Z,31.00
2018-06-21T22:43:58.041Z,31.40
2018-06-21T22:46:26.869Z,31.50
2018-06-21T22:48:54.533Z,31.80
2018-06-21T22:51:23.165Z,31.80
2018-06-21T22:53:56.529Z,32.20
2018-06-21T22:56:24.148Z,32.30
2018-06-21T22:58:51.730Z,32.60
2018-06-21T23:01:19.580Z,32.60
2018-06-21T23:03:48.179Z,33.00
2018-06-21T23:06:15.848Z,32.90
2018-06-21T23:08:43.458Z,33.10
2018-06-21T23:11:13.051Z,33.20
2018-06-21T23:13:40.592Z,33.20
2018-06-21T23:16:09.268Z,33.10
2018-06-21T23:18:51.827Z,33.10
2018-06-21T23:21:20.339Z,33.00
2018-06-21T23:23:48.091Z,33.20
2018-06-21T23:26:15.687Z,33.40
2018-06-21T23:28:43.200Z,33.50
2018-06-21T23:31:11.807Z,33.30
2018-06-21T23:33:39.356Z,33.50
2018-06-21T23:36:06.957Z,33.60
2018-06-21T23:38:35.834Z,34.00
2018-06-21T23:41:04.563Z,34.40
2018-06-21T23:43:32.383Z,34.50
2018-06-21T23:46:00.000Z,34.60
2018-06-21T23:48:27.569Z,34.60
2018-06-21T23:50:55.202Z,34.60
2018-06-21T23:53:22.833Z,34.60
2018-06-21T23:55:51.523Z,34.20
2018-06-21T23:58:19.128Z,34.20
